createdAt,value
2023-03-15T00:00:49.226Z,5.57
2023-03-15T00:03:16.968Z,4.82
2023-03-15T00:05:45.308Z,8.60
2023-03-15T00:08:12.966Z,7.05
2023-03-15T00:10:46.636Z,5.20
2023-03-15T00:13:14.544Z,5.53
2023-03-15T00:15:47.029Z,7.03
2023-03-15T00:18:14.555Z,5.00
2023-03-15T00:20:42.352Z,5.32
2023-03-15T00:23:09.893Z,7.80
2023-03-15T00:25:37.407Z,7.20
2023-03-15T00:28:05.563Z,4.65
2023-03-15T00:30:33.124Z,4.15
2023-03-15T00:33:00.591Z,5.97
2023-03-15T00:35:28.489Z,5.07
2023-03-15T00:37:56.486Z,2.90
2023-03-15T00:40:24.323Z,7.75
2023-03-15T00:42:52.331Z,8.48
2023-03-15T00:45:20.623Z,4.47
2023-03-15T00:47:54.402Z,5.97
2023-03-15T00:50:22.557Z,4.47
2023-03-15T00:52:50.085Z,4.07
2023-03-15T00:55:18.704Z,5.07
2023-03-15T00:57:48.596Z,5.65
2023-03-15T01:00:25.396Z,3.85
2023-03-15T01:02:55.062Z,9.30
2023-03-15T01:05:22.758Z,5.10
2023-03-15T01:07:50.244Z,4.10
2023-03-15T01:10:18.272Z,4.50
2023-03-15T01:12:45.787Z,7.28
2023-03-15T01:15:14.261Z,8.38
2023-03-15T01:17:42.165Z,6.22
2023-03-15T01:20:12.057Z,7.43
2023-03-15T01:22:39.564Z,3.85
2023-03-15T01:25:09.384Z,4.05
2023-03-15T01:27:36.905Z,4.07
2023-03-15T01:30:04.841Z,4.15
2023-03-15T01:32:33.446Z,5.18
2023-03-15T01:35:00.918Z,3.97
2023-03-15T01:37:28.669Z,5.95
2023-03-15T01:39:56.463Z,3.00
2023-03-15T01:42:23.902Z,4.68
2023-03-15T01:44:54.501Z,6.47
2023-03-15T01:47:25.953Z,4.87
2023-03-15T01:49:57.885Z,5.28
2023-03-15T01:52:29.096Z,4.47
2023-03-15T01:55:05.511Z,3.97
2023-03-15T01:57:37.024Z,5.35
2023-03-15T02:00:12.221Z,9.98
2023-03-15T02:03:01.089Z,5.05
2023-03-15T02:05:34.819Z,5.28
2023-03-15T02:08:02.961Z,5.12
2023-03-15T02:10:35.458Z,5.70
2023-03-15T02:13:03.279Z,4.62
2023-03-15T02:15:31.251Z,3.35
2023-03-15T02:17:59.146Z,5.60
2023-03-15T02:20:52.028Z,6.28
2023-03-15T02:23:21.090Z,6.18
2023-03-15T02:25:57.619Z,8.85
2023-03-15T02:28:27.561Z,4.60
2023-03-15T02:30:54.991Z,10.32
2023-03-15T02:33:36.629Z,7.50
2023-03-15T02:36:12.353Z,5.35
2023-03-15T02:38:39.809Z,6.30
2023-03-15T02:41:07.521Z,4.10
2023-03-15T02:43:34.953Z,5.07
2023-03-15T02:46:02.446Z,4.78
2023-03-15T02:48:31.666Z,5.30
2023-03-15T02:50:59.106Z,3.67
2023-03-15T02:53:26.592Z,2.78
2023-03-15T02:55:54.338Z,2.78
2023-03-15T02:58:21.779Z,3.80
2023-03-15T03:00:49.323Z,7.82
2023-03-15T03:03:19.172Z,3.17
2023-03-15T03:05:46.700Z,3.97
2023-03-15T03:08:16.476Z,3.80
2023-03-15T03:10:44.449Z,4.75
2023-03-15T03:13:12.089Z,2.70
2023-03-15T03:15:39.874Z,3.33
2023-03-15T03:18:07.577Z,4.07
2023-03-15T03:20:35.022Z,4.18
2023-03-15T03:23:06.213Z,4.35
2023-03-15T03:25:33.941Z,3.30
2023-03-15T03:28:03.962Z,4.15
2023-03-15T03:30:31.674Z,4.22
2023-03-15T03:32:59.556Z,6.97
2023-03-15T03:35:27.200Z,3.22
2023-03-15T03:37:55.727Z,5.03
2023-03-15T03:40:23.568Z,2.47
2023-03-15T03:42:51.121Z,3.53
2023-03-15T03:45:18.854Z,2.35
2023-03-15T03:47:48.017Z,2.90
2023-03-15T03:50:15.842Z,4.45
2023-03-15T03:52:43.936Z,4.40
2023-03-15T03:55:14.763Z,2.58
2023-03-15T03:57:42.641Z,4.62
2023-03-15T04:00:14.292Z,3.58
2023-03-15T04:02:42.860Z,5.68
2023-03-15T04:05:11.827Z,1.92
2023-03-15T04:07:39.704Z,4.00
2023-03-15T04:10:07.840Z,2.22
2023-03-15T04:12:36.125Z,3.17
2023-03-15T04:15:04.514Z,2.72
2023-03-15T04:17:32.577Z,3.08
2023-03-15T04:20:02.048Z,3.80
2023-03-15T04:24:57.789Z,4.78
2023-03-15T04:27:25.502Z,3.42
2023-03-15T04:29:53.397Z,3.12
2023-03-15T04:32:21.246Z,2.92
2023-03-15T04:34:51.531Z,2.12
2023-03-15T04:37:19.707Z,6.20
2023-03-15T04:39:48.053Z,3.03
2023-03-15T04:42:16.267Z,2.72
2023-03-15T04:44:43.942Z,3.95
2023-03-15T04:47:12.450Z,6.72
2023-03-15T04:49:40.648Z,5.35
2023-03-15T04:52:08.650Z,4.30
2023-03-15T04:54:39.342Z,6.95
2023-03-15T04:57:08.684Z,4.10
2023-03-15T04:59:36.345Z,4.18
2023-03-15T05:02:04.985Z,3.92
2023-03-15T05:04:33.379Z,3.00
2023-03-15T05:07:01.104Z,3.60
2023-03-15T05:09:29.451Z,3.95
2023-03-15T05:11:57.564Z,7.87
2023-03-15T05:14:28.006Z,4.62
2023-03-15T05:16:58.489Z,2.40
2023-03-15T05:19:27.283Z,6.55
2023-03-15T05:21:55.654Z,3.47
2023-03-15T05:24:23.559Z,2.67
2023-03-15T05:26:54.268Z,3.83
2023-03-15T05:29:22.774Z,2.37
2023-03-15T05:31:52.321Z,5.87
2023-03-15T05:34:20.005Z,2.47
2023-03-15T05:36:47.710Z,3.92
2023-03-15T05:39:16.809Z,5.45
2023-03-15T05:41:44.638Z,2.55
2023-03-15T05:44:15.403Z,4.40
2023-03-15T05:46:43.254Z,5.28
2023-03-15T05:49:10.870Z,3.15
2023-03-15T05:51:38.797Z,4.82
2023-03-15T05:54:07.169Z,4.43
2023-03-15T05:56:53.489Z,1.90
2023-03-15T05:59:21.837Z,2.33
2023-03-15T06:01:49.455Z,4.03
2023-03-15T06:04:17.711Z,3.15
2023-03-15T06:06:45.402Z,2.87
2023-03-15T06:09:13.013Z,7.70
2023-03-15T06:11:41.049Z,3.30
2023-03-15T06:14:10.625Z,3.53
2023-03-15T06:16:38.392Z,3.15
2023-03-15T06:19:07.596Z,4.00
2023-03-15T06:21:35.095Z,3.00
2023-03-15T06:24:04.054Z,5.25
2023-03-15T06:26:31.784Z,2.42
2023-03-15T06:28:59.381Z,3.22
2023-03-15T06:31:26.961Z,4.82
2023-03-15T06:33:55.051Z,2.58
2023-03-15T06:36:23.338Z,3.17
2023-03-15T06:38:51.124Z,3.80
2023-03-15T06:41:18.819Z,3.37
2023-03-15T06:43:46.368Z,4.95
2023-03-15T06:46:14.112Z,4.43
2023-03-15T06:48:41.912Z,3.75
2023-03-15T06:51:09.607Z,2.95
2023-03-15T06:53:37.085Z,4.30
2023-03-15T06:56:05.115Z,4.32
2023-03-15T06:58:32.561Z,2.28
2023-03-15T07:01:00.057Z,3.33
2023-03-15T07:03:27.825Z,5.10
2023-03-15T07:05:55.276Z,5.57
2023-03-15T07:08:23.004Z,1.70
2023-03-15T07:10:50.858Z,2.50
2023-03-15T07:13:18.749Z,2.67
2023-03-15T07:15:47.828Z,3.05
2023-03-15T07:18:15.558Z,2.85
2023-03-15T07:20:42.970Z,4.75
2023-03-15T07:23:10.373Z,3.08
2023-03-15T07:25:53.956Z,4.90
2023-03-15T07:28:22.567Z,3.15
2023-03-15T07:31:00.805Z,4.57
2023-03-15T07:33:29.332Z,5.30
2023-03-15T07:35:57.177Z,10.68
2023-03-15T07:38:26.058Z,2.85
2023-03-15T07:40:53.483Z,4.62
2023-03-15T07:43:21.429Z,3.08
2023-03-15T07:45:49.747Z,2.70
2023-03-15T07:48:17.293Z,4.60
2023-03-15T07:50:45.610Z,4.80
2023-03-15T07:53:13.109Z,2.80
2023-03-15T07:55:40.702Z,4.78
2023-03-15T07:58:08.498Z,2.05
2023-03-15T08:00:36.039Z,9.23
2023-03-15T08:03:04.381Z,5.10
2023-03-15T08:05:32.064Z,2.90
2023-03-15T08:07:59.547Z,2.97
2023-03-15T08:10:27.422Z,8.23
2023-03-15T08:12:54.869Z,5.43
2023-03-15T08:15:22.292Z,7.40
2023-03-15T08:17:50.317Z,8.27
2023-03-15T08:20:18.376Z,5.45
2023-03-15T08:22:47.171Z,8.05
2023-03-15T08:25:17.425Z,7.53
2023-03-15T08:27:44.924Z,4.22
2023-03-15T08:30:13.289Z,5.05
2023-03-15T08:32:41.868Z,7.25
2023-03-15T08:35:09.602Z,4.43
2023-03-15T08:37:37.089Z,5.50
2023-03-15T08:40:10.858Z,5.12
2023-03-15T08:42:38.312Z,6.70
2023-03-15T08:45:07.153Z,3.40
2023-03-15T08:47:37.994Z,6.50
2023-03-15T08:50:07.533Z,2.85
2023-03-15T08:52:35.122Z,4.33
2023-03-15T08:55:04.821Z,3.00
2023-03-15T08:57:33.318Z,4.57
2023-03-15T09:00:01.786Z,8.23
2023-03-15T09:02:29.314Z,2.60
2023-03-15T09:04:57.034Z,3.67
2023-03-15T09:07:24.444Z,3.67
2023-03-15T09:09:54.318Z,3.97
2023-03-15T09:12:22.116Z,5.28
2023-03-15T09:14:49.646Z,5.78
2023-03-15T09:17:17.065Z,3.50
2023-03-15T09:19:44.784Z,3.78
2023-03-15T09:22:17.251Z,8.10
2023-03-15T09:24:52.677Z,8.63
2023-03-15T09:27:20.194Z,9.77
2023-03-15T09:29:47.647Z,5.43
2023-03-15T09:32:15.359Z,7.50
2023-03-15T09:34:42.882Z,12.40
2023-03-15T09:37:10.676Z,4.00
2023-03-15T09:39:38.459Z,8.45
2023-03-15T09:42:42.149Z,9.10
2023-03-15T09:45:24.494Z,5.40
2023-03-15T09:48:00.589Z,11.70
2023-03-15T09:50:33.226Z,7.57
2023-03-15T09:53:03.177Z,7.47
2023-03-15T09:55:30.930Z,6.60
2023-03-15T09:58:01.878Z,8.80
2023-03-15T10:00:48.963Z,7.47
2023-03-15T10:03:47.467Z,5.50
2023-03-15T10:06:20.119Z,10.65
2023-03-15T10:08:47.871Z,12.68
2023-03-15T10:11:39.871Z,11.73
2023-03-15T10:15:00.295Z,15.77
2023-03-15T10:17:46.100Z,8.27
2023-03-15T10:20:21.871Z,15.63
2023-03-15T10:22:58.868Z,13.23
2023-03-15T10:25:29.874Z,10.38
2023-03-15T10:28:21.741Z,10.77
2023-03-15T10:30:49.922Z,14.00
2023-03-15T10:33:36.733Z,14.35
2023-03-15T10:36:16.369Z,12.10
2023-03-15T10:38:44.695Z,14.07
2023-03-15T10:41:17.861Z,10.63
2023-03-15T10:43:58.297Z,8.02
2023-03-15T10:46:26.162Z,15.77
2023-03-15T10:48:59.312Z,11.15
2023-03-15T10:51:31.461Z,14.27
2023-03-15T10:54:01.461Z,8.85
2023-03-15T10:56:30.986Z,12.07
2023-03-15T10:59:11.901Z,14.93
2023-03-15T11:01:40.699Z,17.12
2023-03-15T11:04:18.711Z,13.43
2023-03-15T11:07:07.843Z,13.35
2023-03-15T11:09:42.811Z,11.55
2023-03-15T11:12:17.682Z,8.80
2023-03-15T11:14:48.034Z,12.52
2023-03-15T11:17:27.263Z,10.63
2023-03-15T11:19:59.982Z,19.45
2023-03-15T11:22:27.748Z,11.25
2023-03-15T11:24:55.349Z,17.52
2023-03-15T11:27:23.552Z,14.13
2023-03-15T11:29:59.868Z,11.23
2023-03-15T11:32:29.225Z,13.57
2023-03-15T11:35:17.970Z,11.50
2023-03-15T11:38:03.206Z,11.57
2023-03-15T11:40:34.890Z,18.37
2023-03-15T11:43:02.222Z,17.62
2023-03-15T11:45:51.043Z,12.20
2023-03-15T11:48:39.452Z,9.88
2023-03-15T11:51:07.547Z,11.93
2023-03-15T11:53:37.426Z,12.82
2023-03-15T11:56:24.830Z,10.38
2023-03-15T11:59:07.230Z,10.90
2023-03-15T12:01:35.017Z,11.45
2023-03-15T12:04:24.270Z,11.02
2023-03-15T12:06:58.878Z,10.98
2023-03-15T12:09:32.587Z,11.25
2023-03-15T12:12:00.852Z,9.88
2023-03-15T12:14:32.557Z,8.52
2023-03-15T12:17:28.808Z,11.40
2023-03-15T12:20:00.776Z,11.35
2023-03-15T12:22:31.609Z,10.45
2023-03-15T12:25:13.153Z,7.72
2023-03-15T12:27:46.124Z,11.55
2023-03-15T12:30:20.790Z,9.95
2023-03-15T12:32:51.056Z,10.57
2023-03-15T12:35:20.171Z,8.00
2023-03-15T12:37:48.259Z,8.85
2023-03-15T12:40:15.556Z,12.25
2023-03-15T12:42:43.152Z,10.50
2023-03-15T12:45:16.871Z,6.53
2023-03-15T12:47:53.712Z,9.63
2023-03-15T12:50:43.641Z,8.38
2023-03-15T12:53:29.569Z,7.20
2023-03-15T12:56:13.049Z,8.05
2023-03-15T12:58:41.192Z,8.77
2023-03-15T13:01:10.013Z,7.25
2023-03-15T13:03:38.659Z,7.22
2023-03-15T13:06:30.376Z,8.10
2023-03-15T13:09:26.991Z,7.65
2023-03-15T13:12:00.072Z,9.80
2023-03-15T13:14:45.898Z,6.47
2023-03-15T13:17:41.564Z,9.25
2023-03-15T13:20:21.015Z,9.30
2023-03-15T13:22:55.404Z,9.65
2023-03-15T13:25:31.040Z,14.27
2023-03-15T13:28:06.839Z,11.55
2023-03-15T13:30:37.228Z,16.65
2023-03-15T13:33:26.530Z,10.13
2023-03-15T13:36:15.128Z,13.00
2023-03-15T13:38:44.832Z,13.65
2023-03-15T13:41:31.022Z,12.55
2023-03-15T13:44:00.954Z,13.13
2023-03-15T13:46:30.675Z,16.92
2023-03-15T13:48:58.164Z,6.65
2023-03-15T13:51:32.166Z,12.57
2023-03-15T13:54:11.535Z,9.38
2023-03-15T13:56:59.620Z,9.32
2023-03-15T13:59:44.705Z,10.57
2023-03-15T14:02:21.186Z,12.15
2023-03-15T14:04:52.324Z,9.45
2023-03-15T14:07:25.664Z,9.15
2023-03-15T14:10:19.113Z,9.18
2023-03-15T14:12:46.670Z,13.98
2023-03-15T14:15:37.126Z,9.50
2023-03-15T14:21:00.060Z,7.65
2023-03-15T14:23:28.650Z,7.95
2023-03-15T14:26:22.921Z,6.65
2023-03-15T14:29:02.536Z,7.65
2023-03-15T14:31:32.717Z,8.73
2023-03-15T14:34:25.878Z,7.87
2023-03-15T14:36:57.783Z,7.85
2023-03-15T14:39:28.318Z,9.70
2023-03-15T14:41:56.293Z,10.00
2023-03-15T14:44:24.152Z,7.50
2023-03-15T14:46:51.739Z,8.20
2023-03-15T14:49:24.287Z,6.75
2023-03-15T14:51:59.069Z,6.32
2023-03-15T14:54:28.628Z,4.65
2023-03-15T14:56:56.392Z,8.20
2023-03-15T14:59:23.924Z,8.32
2023-03-15T15:01:53.740Z,10.38
2023-03-15T15:04:21.553Z,7.55
2023-03-15T15:06:52.722Z,5.28
2023-03-15T15:09:25.031Z,6.40
2023-03-15T15:11:52.631Z,11.30
2023-03-15T15:14:21.956Z,4.95
2023-03-15T15:16:49.563Z,5.20
2023-03-15T15:19:17.306Z,6.00
2023-03-15T15:21:45.089Z,9.10
2023-03-15T15:24:16.714Z,7.85
2023-03-15T15:26:44.360Z,6.10
2023-03-15T15:29:14.159Z,6.85
2023-03-15T15:31:42.317Z,9.15
2023-03-15T15:34:09.989Z,4.57
2023-03-15T15:36:43.989Z,5.07
2023-03-15T15:39:27.863Z,5.82
2023-03-15T15:41:56.407Z,6.12
2023-03-15T15:44:26.198Z,4.70
2023-03-15T15:46:54.116Z,6.18
2023-03-15T15:49:21.875Z,5.32
2023-03-15T15:51:49.960Z,5.80
2023-03-15T15:54:23.015Z,5.90
2023-03-15T15:57:00.645Z,5.15
2023-03-15T15:59:28.816Z,4.03
2023-03-15T16:02:02.573Z,6.05
2023-03-15T16:04:33.100Z,6.97
2023-03-15T16:07:05.034Z,6.35
2023-03-15T16:09:35.869Z,3.58
2023-03-15T16:12:11.457Z,8.40
2023-03-15T16:14:39.209Z,6.28
2023-03-15T16:17:15.541Z,4.87
2023-03-15T16:19:47.248Z,8.30
2023-03-15T16:22:15.456Z,14.63
2023-03-15T16:24:55.088Z,11.80
2023-03-15T16:27:25.171Z,6.32
2023-03-15T16:29:57.598Z,7.70
2023-03-15T16:32:40.914Z,10.02
2023-03-15T16:35:16.130Z,7.57
2023-03-15T16:37:44.298Z,7.70
2023-03-15T16:40:30.089Z,8.82
2023-03-15T16:42:58.850Z,8.20
2023-03-15T16:45:27.964Z,7.82
2023-03-15T16:47:56.973Z,8.25
2023-03-15T16:50:25.236Z,7.12
2023-03-15T16:52:55.150Z,7.30
2023-03-15T16:57:56.269Z,9.85
2023-03-15T17:00:25.893Z,5.75
2023-03-15T17:02:55.261Z,6.50
2023-03-15T17:05:24.957Z,6.80
2023-03-15T17:07:53.784Z,9.38
2023-03-15T17:10:29.866Z,7.28
2023-03-15T17:13:04.929Z,8.32
2023-03-15T17:15:34.048Z,7.93
2023-03-15T17:18:03.853Z,5.22
2023-03-15T17:20:34.109Z,8.10
2023-03-15T17:23:06.347Z,6.68
2023-03-15T17:25:35.044Z,8.30
2023-03-15T17:28:05.275Z,7.60
2023-03-15T17:30:35.359Z,7.05
2023-03-15T17:33:05.875Z,5.10
2023-03-15T17:35:39.261Z,5.68
2023-03-15T17:38:16.274Z,6.97
2023-03-15T17:40:45.216Z,10.57
2023-03-15T17:43:16.135Z,10.32
2023-03-15T17:45:45.186Z,6.05
2023-03-15T17:48:14.451Z,6.05
2023-03-15T17:50:43.221Z,6.60
2023-03-15T17:53:17.127Z,5.72
2023-03-15T17:55:48.400Z,11.73
2023-03-15T17:58:23.952Z,7.35
2023-03-15T18:00:55.053Z,12.25
2023-03-15T18:03:24.462Z,8.48
2023-03-15T18:05:53.411Z,9.95
2023-03-15T18:08:25.294Z,8.05
2023-03-15T18:10:57.381Z,11.32
2023-03-15T18:13:26.888Z,9.07
2023-03-15T18:15:55.071Z,9.77
2023-03-15T18:18:27.242Z,7.90
2023-03-15T18:20:58.246Z,8.32
2023-03-15T18:23:28.531Z,5.40
2023-03-15T18:25:57.441Z,4.35
2023-03-15T18:28:26.795Z,5.93
2023-03-15T18:30:55.950Z,8.93
2023-03-15T18:33:24.965Z,9.30
2023-03-15T18:35:55.471Z,6.25
2023-03-15T18:38:26.658Z,12.13
2023-03-15T18:40:56.564Z,9.05
2023-03-15T18:43:25.593Z,8.35
2023-03-15T18:45:54.731Z,7.27
2023-03-15T18:48:40.782Z,9.55
2023-03-15T18:51:12.722Z,10.40
2023-03-15T18:53:44.125Z,7.32
2023-03-15T18:56:20.950Z,6.57
2023-03-15T18:58:51.402Z,8.75
2023-03-15T19:01:33.157Z,7.37
2023-03-15T19:04:02.432Z,7.15
2023-03-15T19:06:32.370Z,9.30
2023-03-15T19:11:33.019Z,7.50
2023-03-15T19:14:10.045Z,12.45
2023-03-15T19:16:43.333Z,9.18
2023-03-15T19:19:16.339Z,8.93
2023-03-15T19:21:45.875Z,5.65
2023-03-15T19:24:16.416Z,9.60
2023-03-15T19:26:45.895Z,8.23
2023-03-15T19:29:16.058Z,7.25
2023-03-15T19:31:47.763Z,9.50
2023-03-15T19:34:17.820Z,5.35
2023-03-15T19:36:47.717Z,13.38
2023-03-15T19:39:17.272Z,9.23
2023-03-15T19:41:49.033Z,11.07
2023-03-15T19:44:18.600Z,8.13
2023-03-15T19:46:47.529Z,6.45
2023-03-15T19:49:18.137Z,6.72
2023-03-15T19:51:47.772Z,12.82
2023-03-15T19:54:18.884Z,10.55
2023-03-15T19:56:49.341Z,8.85
2023-03-15T20:01:48.440Z,9.98
2023-03-15T20:04:19.611Z,12.60
2023-03-15T20:06:49.110Z,7.40
2023-03-15T20:09:19.734Z,6.35
2023-03-15T20:11:49.038Z,8.20
2023-03-15T20:14:21.316Z,7.30
2023-03-15T20:16:50.725Z,5.47
2023-03-15T20:19:20.627Z,6.97
2023-03-15T20:21:49.483Z,7.07
2023-03-15T20:24:19.074Z,6.27
2023-03-15T20:29:19.017Z,6.90
2023-03-15T20:31:54.271Z,10.98
2023-03-15T20:34:23.671Z,7.82
2023-03-15T20:39:26.879Z,7.68
2023-03-15T20:41:56.472Z,6.22
2023-03-15T20:44:27.834Z,11.32
2023-03-15T20:47:00.924Z,8.27
2023-03-15T20:49:31.181Z,12.57
2023-03-15T20:52:02.202Z,9.40
2023-03-15T20:54:32.900Z,10.90
2023-03-15T20:57:03.701Z,14.32
2023-03-15T20:59:34.293Z,8.35
2023-03-15T21:02:04.300Z,8.05
2023-03-15T21:04:33.765Z,16.60
2023-03-15T21:12:02.465Z,7.40
2023-03-15T21:14:33.450Z,7.62
2023-03-15T21:17:02.323Z,9.10
2023-03-15T21:19:32.191Z,6.05
2023-03-15T21:22:01.243Z,8.82
2023-03-15T21:24:31.198Z,8.70
2023-03-15T21:26:59.543Z,7.30
2023-03-15T21:29:31.082Z,5.85
2023-03-15T21:31:59.441Z,6.32
2023-03-15T21:34:27.270Z,7.00
2023-03-15T21:36:55.906Z,8.23
2023-03-15T21:39:24.610Z,7.03
2023-03-15T21:41:53.205Z,7.22
2023-03-15T21:44:21.465Z,8.98
2023-03-15T21:46:49.708Z,8.07
2023-03-15T21:49:18.144Z,5.00
2023-03-15T21:51:46.188Z,7.65
2023-03-15T21:54:13.934Z,7.87
2023-03-15T21:56:42.250Z,4.82
2023-03-15T21:59:10.674Z,7.05
2023-03-15T22:01:38.701Z,7.10
2023-03-15T22:04:07.076Z,7.93
2023-03-15T22:06:34.527Z,7.93
2023-03-15T22:09:01.936Z,7.32
2023-03-15T22:11:29.667Z,7.87
2023-03-15T22:13:57.107Z,7.97
2023-03-15T22:16:24.566Z,5.80
2023-03-15T22:18:52.289Z,6.18
2023-03-15T22:21:19.808Z,8.18
2023-03-15T22:23:47.431Z,7.80
2023-03-15T22:26:15.379Z,6.18
2023-03-15T22:28:42.793Z,6.93
2023-03-15T22:31:12.448Z,6.03
2023-03-15T22:36:07.790Z,5.32
2023-03-15T22:38:37.953Z,6.68
2023-03-15T22:41:09.202Z,7.45
2023-03-15T22:43:37.077Z,9.00
2023-03-15T22:46:04.786Z,7.40
2023-03-15T22:48:33.277Z,6.70
2023-03-15T22:51:07.074Z,5.18
2023-03-15T22:53:34.800Z,8.90
2023-03-15T22:56:03.721Z,7.80
2023-03-15T22:58:31.190Z,5.20
2023-03-15T23:00:59.521Z,7.85
2023-03-15T23:03:26.971Z,8.68
2023-03-15T23:05:54.821Z,6.85
2023-03-15T23:08:23.029Z,5.82
2023-03-15T23:10:50.549Z,6.05
2023-03-15T23:13:18.297Z,8.30
2023-03-15T23:15:46.327Z,8.95
2023-03-15T23:18:14.736Z,6.60
2023-03-15T23:20:42.312Z,7.87
2023-03-15T23:23:10.059Z,6.78
2023-03-15T23:25:38.944Z,7.55
2023-03-15T23:28:07.059Z,8.27
2023-03-15T23:30:36.218Z,6.53
2023-03-15T23:33:04.175Z,6.77
2023-03-15T23:35:31.898Z,6.35
2023-03-15T23:37:59.755Z,4.53
2023-03-15T23:40:27.489Z,8.50
2023-03-15T23:42:59.324Z,5.70
2023-03-15T23:45:29.500Z,6.12
2023-03-15T23:47:57.153Z,4.35
2023-03-15T23:50:26.338Z,8.25
2023-03-15T23:52:55.430Z,5.93
2023-03-15T23:55:23.495Z,4.50
2023-03-15T23:57:51.119Z,7.32
